sensor_id;sensor_type;location;lat;lon;timestamp;P1;P2;P0
67714;PMS7003;54505;44.022;20.458;2022-10-31T00:00:42;134.50;110.25;70.00
67714;PMS7003;54505;44.022;20.458;2022-10-31T00:03:29;122.25;98.25;63.00
67714;PMS7003;54505;44.022;20.458;2022-10-31T00:05:54;171.75;146.50;87.25
67714;PMS7003;54505;44.022;20.458;2022-10-31T00:08:20;131.00;106.75;62.75
67714;PMS7003;54505;44.022;20.458;2022-10-31T00:10:45;97.75;78.50;52.50
67714;PMS7003;54505;44.022;20.458;2022-10-31T00:13:12;109.00;86.00;58.00
67714;PMS7003;54505;44.022;20.458;2022-10-31T00:15:39;108.00;96.00;59.25
67714;PMS7003;54505;44.022;20.458;2022-10-31T00:18:05;112.25;101.75;59.50
67714;PMS7003;54505;44.022;20.458;2022-10-31T00:20:31;124.75;100.25;64.00
67714;PMS7003;54505;44.022;20.458;2022-10-31T00:22:57;131.25;116.25;69.75
67714;PMS7003;54505;44.022;20.458;2022-10-31T00:25:22;137.00;116.25;65.75
67714;PMS7003;54505;44.022;20.458;2022-10-31T00:27:48;140.50;115.75;68.25
67714;PMS7003;54505;44.022;20.458;2022-10-31T00:30:14;128.75;112.25;65.25
67714;PMS7003;54505;44.022;20.458;2022-10-31T00:32:39;129.25;105.25;62.75
67714;PMS7003;54505;44.022;20.458;2022-10-31T00:35:05;112.75;100.50;61.25
67714;PMS7003;54505;44.022;20.458;2022-10-31T00:37:31;114.25;100.25;60.50
67714;PMS7003;54505;44.022;20.458;2022-10-31T00:39:56;108.25;90.00;57.00
67714;PMS7003;54505;44.022;20.458;2022-10-31T00:42:22;110.25;96.00;58.00
67714;PMS7003;54505;44.022;20.458;2022-10-31T00:44:47;113.25;96.75;58.50
67714;PMS7003;54505;44.022;20.458;2022-10-31T00:47:13;120.25;106.50;66.25
67714;PMS7003;54505;44.022;20.458;2022-10-31T00:49:38;106.50;92.25;58.75
67714;PMS7003;54505;44.022;20.458;2022-10-31T00:52:04;107.00;93.25;55.25
67714;PMS7003;54505;44.022;20.458;2022-10-31T00:54:30;91.25;76.50;53.25
67714;PMS7003;54505;44.022;20.458;2022-10-31T00:56:56;109.25;86.25;55.00
67714;PMS7003;54505;44.022;20.458;2022-10-31T00:59:22;100.75;85.50;57.25
67714;PMS7003;54505;44.022;20.458;2022-10-31T01:01:48;116.75;100.50;65.75
67714;PMS7003;54505;44.022;20.458;2022-10-31T01:04:13;119.25;107.00;66.25
67714;PMS7003;54505;44.022;20.458;2022-10-31T01:06:39;120.50;100.25;60.50
67714;PMS7003;54505;44.022;20.458;2022-10-31T01:09:04;91.50;70.50;43.25
67714;PMS7003;54505;44.022;20.458;2022-10-31T01:11:30;96.25;79.25;49.00
67714;PMS7003;54505;44.022;20.458;2022-10-31T01:13:56;90.00;72.00;43.00
67714;PMS7003;54505;44.022;20.458;2022-10-31T01:16:23;102.75;93.25;60.75
67714;PMS7003;54505;44.022;20.458;2022-10-31T01:18:49;111.75;90.50;54.75
67714;PMS7003;54505;44.022;20.458;2022-10-31T01:21:19;94.00;82.50;52.50
67714;PMS7003;54505;44.022;20.458;2022-10-31T01:23:45;98.00;82.75;52.75
67714;PMS7003;54505;44.022;20.458;2022-10-31T01:26:12;97.50;81.75;53.75
67714;PMS7003;54505;44.022;20.458;2022-10-31T01:28:40;104.50;91.00;57.75
67714;PMS7003;54505;44.022;20.458;2022-10-31T01:31:08;117.25;99.50;59.00
67714;PMS7003;54505;44.022;20.458;2022-10-31T01:33:34;101.25;89.00;59.00
67714;PMS7003;54505;44.022;20.458;2022-10-31T01:36:00;111.50;93.75;60.00
67714;PMS7003;54505;44.022;20.458;2022-10-31T01:38:25;103.75;89.75;60.50
67714;PMS7003;54505;44.022;20.458;2022-10-31T01:40:51;103.25;87.50;53.25
67714;PMS7003;54505;44.022;20.458;2022-10-31T01:43:17;87.50;67.75;44.25
67714;PMS7003;54505;44.022;20.458;2022-10-31T01:45:44;89.00;67.75;43.25
67714;PMS7003;54505;44.022;20.458;2022-10-31T01:48:15;86.75;72.25;47.00
67714;PMS7003;54505;44.022;20.458;2022-10-31T01:50:42;89.25;73.50;44.00
67714;PMS7003;54505;44.022;20.458;2022-10-31T01:53:10;85.50;66.25;43.00
67714;PMS7003;54505;44.022;20.458;2022-10-31T01:55:40;87.25;66.00;42.25
67714;PMS7003;54505;44.022;20.458;2022-10-31T01:58:07;85.75;64.25;41.25
67714;PMS7003;54505;44.022;20.458;2022-10-31T02:00:34;83.50;67.00;43.25
67714;PMS7003;54505;44.022;20.458;2022-10-31T02:03:00;88.25;63.00;42.25
67714;PMS7003;54505;44.022;20.458;2022-10-31T02:05:27;88.25;70.00;44.25
67714;PMS7003;54505;44.022;20.458;2022-10-31T02:10:26;95.25;79.50;48.75
67714;PMS7003;54505;44.022;20.458;2022-10-31T02:12:53;84.00;60.00;41.75
67714;PMS7003;54505;44.022;20.458;2022-10-31T02:15:19;89.75;68.50;43.25
67714;PMS7003;54505;44.022;20.458;2022-10-31T02:17:45;73.50;60.25;41.00
67714;PMS7003;54505;44.022;20.458;2022-10-31T02:20:13;83.25;64.50;42.50
67714;PMS7003;54505;44.022;20.458;2022-10-31T02:22:45;87.25;68.75;47.50
67714;PMS7003;54505;44.022;20.458;2022-10-31T02:30:23;110.00;93.75;59.50
67714;PMS7003;54505;44.022;20.458;2022-10-31T02:40:54;85.50;65.00;42.25
67714;PMS7003;54505;44.022;20.458;2022-10-31T02:46:32;86.25;64.75;42.50
67714;PMS7003;54505;44.022;20.458;2022-10-31T02:49:01;76.00;59.00;38.25
67714;PMS7003;54505;44.022;20.458;2022-10-31T02:51:28;80.25;63.50;40.25
67714;PMS7003;54505;44.022;20.458;2022-10-31T02:53:54;79.00;61.00;39.00
67714;PMS7003;54505;44.022;20.458;2022-10-31T02:56:19;83.00;62.00;39.25
67714;PMS7003;54505;44.022;20.458;2022-10-31T02:58:49;72.50;57.00;38.25
67714;PMS7003;54505;44.022;20.458;2022-10-31T03:06:17;76.50;58.25;39.25
67714;PMS7003;54505;44.022;20.458;2022-10-31T03:11:11;91.75;69.50;42.50
67714;PMS7003;54505;44.022;20.458;2022-10-31T03:13:46;96.00;73.00;46.50
67714;PMS7003;54505;44.022;20.458;2022-10-31T03:16:15;87.25;68.25;43.00
67714;PMS7003;54505;44.022;20.458;2022-10-31T03:18:55;90.00;65.75;44.00
67714;PMS7003;54505;44.022;20.458;2022-10-31T03:21:33;88.00;66.50;43.50
67714;PMS7003;54505;44.022;20.458;2022-10-31T03:24:01;90.50;67.00;42.00
67714;PMS7003;54505;44.022;20.458;2022-10-31T03:26:29;91.25;73.00;43.25
67714;PMS7003;54505;44.022;20.458;2022-10-31T03:29:03;88.25;67.25;44.50
67714;PMS7003;54505;44.022;20.458;2022-10-31T03:31:32;113.25;91.75;56.50
67714;PMS7003;54505;44.022;20.458;2022-10-31T03:33:59;100.50;86.00;53.00
67714;PMS7003;54505;44.022;20.458;2022-10-31T03:36:26;110.00;96.75;58.25
67714;PMS7003;54505;44.022;20.458;2022-10-31T03:38:53;98.00;77.50;47.25
67714;PMS7003;54505;44.022;20.458;2022-10-31T03:41:21;98.00;79.75;48.00
67714;PMS7003;54505;44.022;20.458;2022-10-31T03:43:51;97.25;75.50;47.75
67714;PMS7003;54505;44.022;20.458;2022-10-31T03:46:17;102.00;81.50;51.75
67714;PMS7003;54505;44.022;20.458;2022-10-31T03:48:43;95.00;79.75;50.50
67714;PMS7003;54505;44.022;20.458;2022-10-31T03:53:38;99.25;80.00;46.75
67714;PMS7003;54505;44.022;20.458;2022-10-31T03:58:38;86.50;65.50;44.25
67714;PMS7003;54505;44.022;20.458;2022-10-31T04:01:09;88.00;67.25;44.25
67714;PMS7003;54505;44.022;20.458;2022-10-31T04:03:37;87.75;66.25;43.00
67714;PMS7003;54505;44.022;20.458;2022-10-31T04:06:04;80.50;62.00;42.25
67714;PMS7003;54505;44.022;20.458;2022-10-31T04:08:32;84.00;64.25;42.25
67714;PMS7003;54505;44.022;20.458;2022-10-31T04:11:01;87.00;67.00;43.00
67714;PMS7003;54505;44.022;20.458;2022-10-31T04:13:29;86.75;67.25;42.75
67714;PMS7003;54505;44.022;20.458;2022-10-31T04:15:56;82.00;60.75;40.25
67714;PMS7003;54505;44.022;20.458;2022-10-31T04:18:23;79.00;62.25;40.75
67714;PMS7003;54505;44.022;20.458;2022-10-31T04:20:48;81.75;62.50;41.50
67714;PMS7003;54505;44.022;20.458;2022-10-31T04:23:19;74.00;56.00;35.50
67714;PMS7003;54505;44.022;20.458;2022-10-31T04:25:45;80.00;61.75;41.25
67714;PMS7003;54505;44.022;20.458;2022-10-31T04:28:10;79.00;60.25;39.00
67714;PMS7003;54505;44.022;20.458;2022-10-31T04:30:36;90.00;67.50;45.25
67714;PMS7003;54505;44.022;20.458;2022-10-31T04:33:01;93.50;73.00;44.50
67714;PMS7003;54505;44.022;20.458;2022-10-31T04:35:27;96.25;80.50;53.00
67714;PMS7003;54505;44.022;20.458;2022-10-31T04:37:53;117.25;102.50;61.00
67714;PMS7003;54505;44.022;20.458;2022-10-31T04:40:18;100.00;83.75;52.50
67714;PMS7003;54505;44.022;20.458;2022-10-31T04:42:44;111.75;91.50;57.00
67714;PMS7003;54505;44.022;20.458;2022-10-31T04:45:09;99.25;82.25;52.25
67714;PMS7003;54505;44.022;20.458;2022-10-31T04:47:35;97.50;75.75;46.75
67714;PMS7003;54505;44.022;20.458;2022-10-31T04:50:01;89.75;66.75;42.25
67714;PMS7003;54505;44.022;20.458;2022-10-31T04:52:27;88.25;65.00;43.25
67714;PMS7003;54505;44.022;20.458;2022-10-31T04:54:53;90.00;68.50;44.50
67714;PMS7003;54505;44.022;20.458;2022-10-31T04:57:19;85.75;68.25;43.00
67714;PMS7003;54505;44.022;20.458;2022-10-31T04:59:44;80.75;64.75;43.00
67714;PMS7003;54505;44.022;20.458;2022-10-31T05:02:10;88.25;67.75;43.50
67714;PMS7003;54505;44.022;20.458;2022-10-31T05:04:35;87.50;66.50;44.50
67714;PMS7003;54505;44.022;20.458;2022-10-31T05:07:01;90.75;68.25;43.75
67714;PMS7003;54505;44.022;20.458;2022-10-31T05:09:26;98.50;72.25;46.25
67714;PMS7003;54505;44.022;20.458;2022-10-31T05:11:52;92.50;73.50;45.25
67714;PMS7003;54505;44.022;20.458;2022-10-31T05:14:17;87.00;66.00;43.25
67714;PMS7003;54505;44.022;20.458;2022-10-31T05:16:43;78.00;59.75;40.25
67714;PMS7003;54505;44.022;20.458;2022-10-31T05:19:09;74.75;56.75;37.25
67714;PMS7003;54505;44.022;20.458;2022-10-31T05:21:34;73.75;57.75;37.50
67714;PMS7003;54505;44.022;20.458;2022-10-31T05:24:00;79.00;59.50;38.75
67714;PMS7003;54505;44.022;20.458;2022-10-31T05:26:25;72.00;57.00;38.50
67714;PMS7003;54505;44.022;20.458;2022-10-31T05:28:51;69.25;55.25;37.25
67714;PMS7003;54505;44.022;20.458;2022-10-31T05:31:17;71.25;56.00;39.25
67714;PMS7003;54505;44.022;20.458;2022-10-31T05:33:42;92.75;69.00;51.00
67714;PMS7003;54505;44.022;20.458;2022-10-31T05:36:08;77.50;58.25;38.75
67714;PMS7003;54505;44.022;20.458;2022-10-31T05:38:34;80.00;62.00;40.50
67714;PMS7003;54505;44.022;20.458;2022-10-31T05:40:59;75.50;60.50;40.00
67714;PMS7003;54505;44.022;20.458;2022-10-31T05:43:28;75.50;57.00;37.50
67714;PMS7003;54505;44.022;20.458;2022-10-31T05:45:54;79.25;61.25;39.75
67714;PMS7003;54505;44.022;20.458;2022-10-31T05:48:20;78.00;56.00;35.75
67714;PMS7003;54505;44.022;20.458;2022-10-31T05:50:46;76.00;60.25;40.75
67714;PMS7003;54505;44.022;20.458;2022-10-31T05:53:13;75.25;59.75;38.50
67714;PMS7003;54505;44.022;20.458;2022-10-31T05:55:39;86.25;63.50;40.50
67714;PMS7003;54505;44.022;20.458;2022-10-31T05:58:06;61.50;50.00;19.75
67714;PMS7003;54505;44.022;20.458;2022-10-31T06:00:31;82.75;61.50;42.25
67714;PMS7003;54505;44.022;20.458;2022-10-31T06:03:00;93.75;71.75;45.25
67714;PMS7003;54505;44.022;20.458;2022-10-31T06:05:26;98.00;77.75;46.00
67714;PMS7003;54505;44.022;20.458;2022-10-31T06:07:51;91.50;67.75;48.50
67714;PMS7003;54505;44.022;20.458;2022-10-31T06:10:17;95.00;79.00;53.50
67714;PMS7003;54505;44.022;20.458;2022-10-31T06:12:44;94.00;75.50;49.50
67714;PMS7003;54505;44.022;20.458;2022-10-31T06:15:10;94.75;75.25;50.00
67714;PMS7003;54505;44.022;20.458;2022-10-31T06:17:36;95.25;67.75;46.50
67714;PMS7003;54505;44.022;20.458;2022-10-31T06:20:02;89.75;70.25;44.75
67714;PMS7003;54505;44.022;20.458;2022-10-31T06:22:28;98.25;81.25;52.25
67714;PMS7003;54505;44.022;20.458;2022-10-31T06:24:54;92.25;70.50;46.75
67714;PMS7003;54505;44.022;20.458;2022-10-31T06:27:19;90.75;71.25;49.00
67714;PMS7003;54505;44.022;20.458;2022-10-31T06:29:45;103.50;95.25;67.00
67714;PMS7003;54505;44.022;20.458;2022-10-31T06:32:11;95.75;80.75;52.75
67714;PMS7003;54505;44.022;20.458;2022-10-31T06:34:37;93.25;73.25;47.00
67714;PMS7003;54505;44.022;20.458;2022-10-31T06:37:05;98.75;77.25;53.00
67714;PMS7003;54505;44.022;20.458;2022-10-31T06:39:30;88.25;67.25;45.25
67714;PMS7003;54505;44.022;20.458;2022-10-31T06:41:56;85.25;67.25;42.50
67714;PMS7003;54505;44.022;20.458;2022-10-31T06:44:21;84.25;65.25;42.50
67714;PMS7003;54505;44.022;20.458;2022-10-31T06:46:47;88.75;68.25;43.00
67714;PMS7003;54505;44.022;20.458;2022-10-31T06:49:13;80.50;63.25;40.25
67714;PMS7003;54505;44.022;20.458;2022-10-31T06:51:39;80.25;60.25;39.25
67714;PMS7003;54505;44.022;20.458;2022-10-31T06:54:04;79.50;60.75;40.25
67714;PMS7003;54505;44.022;20.458;2022-10-31T06:56:30;82.00;62.00;40.75
67714;PMS7003;54505;44.022;20.458;2022-10-31T06:58:56;78.25;61.25;39.25
67714;PMS7003;54505;44.022;20.458;2022-10-31T07:01:22;75.75;59.00;39.00
67714;PMS7003;54505;44.022;20.458;2022-10-31T07:03:47;82.75;60.50;39.25
67714;PMS7003;54505;44.022;20.458;2022-10-31T07:06:13;78.75;64.50;42.00
67714;PMS7003;54505;44.022;20.458;2022-10-31T07:08:39;82.75;67.25;44.50
67714;PMS7003;54505;44.022;20.458;2022-10-31T07:11:04;82.50;63.00;42.00
67714;PMS7003;54505;44.022;20.458;2022-10-31T07:13:30;82.50;69.00;45.25
67714;PMS7003;54505;44.022;20.458;2022-10-31T07:15:59;78.00;59.25;40.50
67714;PMS7003;54505;44.022;20.458;2022-10-31T07:18:25;86.00;73.25;47.50
67714;PMS7003;54505;44.022;20.458;2022-10-31T07:20:51;83.75;66.75;45.75
67714;PMS7003;54505;44.022;20.458;2022-10-31T07:23:16;86.50;68.00;45.25
67714;PMS7003;54505;44.022;20.458;2022-10-31T07:25:42;80.50;65.50;43.00
67714;PMS7003;54505;44.022;20.458;2022-10-31T07:28:08;81.50;68.00;44.25
67714;PMS7003;54505;44.022;20.458;2022-10-31T07:30:34;81.50;66.50;44.25
67714;PMS7003;54505;44.022;20.458;2022-10-31T07:33:00;85.25;72.25;46.25
67714;PMS7003;54505;44.022;20.458;2022-10-31T07:35:26;82.25;69.50;43.50
67714;PMS7003;54505;44.022;20.458;2022-10-31T07:37:53;79.50;66.75;43.25
67714;PMS7003;54505;44.022;20.458;2022-10-31T07:40:22;80.75;67.25;44.75
67714;PMS7003;54505;44.022;20.458;2022-10-31T07:42:49;79.75;64.75;43.50
67714;PMS7003;54505;44.022;20.458;2022-10-31T07:45:19;103.00;91.25;56.00
67714;PMS7003;54505;44.022;20.458;2022-10-31T07:47:45;98.75;90.25;62.00
67714;PMS7003;54505;44.022;20.458;2022-10-31T07:50:13;83.25;71.75;46.75
67714;PMS7003;54505;44.022;20.458;2022-10-31T07:52:39;74.75;61.25;42.75
67714;PMS7003;54505;44.022;20.458;2022-10-31T07:55:05;77.50;62.75;40.25
67714;PMS7003;54505;44.022;20.458;2022-10-31T07:57:30;74.75;58.50;38.00
67714;PMS7003;54505;44.022;20.458;2022-10-31T07:59:56;72.00;55.00;36.25
67714;PMS7003;54505;44.022;20.458;2022-10-31T08:02:22;68.75;55.00;37.00
67714;PMS7003;54505;44.022;20.458;2022-10-31T08:04:48;98.00;82.50;52.25
67714;PMS7003;54505;44.022;20.458;2022-10-31T08:07:14;78.75;71.00;47.50
67714;PMS7003;54505;44.022;20.458;2022-10-31T08:09:40;70.25;54.00;36.00
67714;PMS7003;54505;44.022;20.458;2022-10-31T08:12:05;63.00;49.50;34.50
67714;PMS7003;54505;44.022;20.458;2022-10-31T08:14:31;75.25;63.75;48.00
67714;PMS7003;54505;44.022;20.458;2022-10-31T08:16:56;60.25;47.25;32.00
67714;PMS7003;54505;44.022;20.458;2022-10-31T08:19:22;58.75;47.75;32.00
67714;PMS7003;54505;44.022;20.458;2022-10-31T08:21:51;60.75;50.00;34.00
67714;PMS7003;54505;44.022;20.458;2022-10-31T08:24:17;62.25;50.00;33.50
67714;PMS7003;54505;44.022;20.458;2022-10-31T08:26:44;60.00;47.25;31.00
67714;PMS7003;54505;44.022;20.458;2022-10-31T08:29:10;59.25;48.75;34.00
67714;PMS7003;54505;44.022;20.458;2022-10-31T08:31:35;58.25;47.25;32.75
67714;PMS7003;54505;44.022;20.458;2022-10-31T08:34:01;71.75;57.25;41.25
67714;PMS7003;54505;44.022;20.458;2022-10-31T08:36:27;69.75;56.50;41.25
67714;PMS7003;54505;44.022;20.458;2022-10-31T08:38:53;65.25;52.00;34.25
67714;PMS7003;54505;44.022;20.458;2022-10-31T08:41:19;71.25;57.00;40.75
67714;PMS7003;54505;44.022;20.458;2022-10-31T08:43:45;66.25;52.00;35.00
67714;PMS7003;54505;44.022;20.458;2022-10-31T08:46:11;60.50;48.25;33.00
67714;PMS7003;54505;44.022;20.458;2022-10-31T08:48:37;62.50;48.00;33.00
67714;PMS7003;54505;44.022;20.458;2022-10-31T08:51:03;59.25;47.25;32.75
67714;PMS7003;54505;44.022;20.458;2022-10-31T08:53:28;193.50;167.25;90.00
67714;PMS7003;54505;44.022;20.458;2022-10-31T08:55:54;59.50;47.00;32.00
67714;PMS7003;54505;44.022;20.458;2022-10-31T08:58:21;60.50;49.00;32.00
67714;PMS7003;54505;44.022;20.458;2022-10-31T09:00:47;61.75;48.25;33.25
67714;PMS7003;54505;44.022;20.458;2022-10-31T09:03:23;57.50;45.00;31.00
67714;PMS7003;54505;44.022;20.458;2022-10-31T09:05:49;55.50;44.75;31.00
67714;PMS7003;54505;44.022;20.458;2022-10-31T09:08:15;50.25;41.25;29.25
67714;PMS7003;54505;44.022;20.458;2022-10-31T09:10:41;52.50;42.00;29.00
67714;PMS7003;54505;44.022;20.458;2022-10-31T09:13:09;48.50;40.00;27.75
67714;PMS7003;54505;44.022;20.458;2022-10-31T09:15:36;53.00;41.50;29.75
67714;PMS7003;54505;44.022;20.458;2022-10-31T09:18:03;52.75;41.25;27.00
67714;PMS7003;54505;44.022;20.458;2022-10-31T09:20:30;43.25;34.75;25.25
67714;PMS7003;54505;44.022;20.458;2022-10-31T09:22:56;46.50;37.50;26.00
67714;PMS7003;54505;44.022;20.458;2022-10-31T09:25:23;45.50;37.00;25.25
67714;PMS7003;54505;44.022;20.458;2022-10-31T09:27:48;46.00;38.00;27.25
67714;PMS7003;54505;44.022;20.458;2022-10-31T09:30:14;10.00;6.00;0.00
67714;PMS7003;54505;44.022;20.458;2022-10-31T09:32:39;45.00;35.50;24.00
67714;PMS7003;54505;44.022;20.458;2022-10-31T09:35:05;43.00;35.50;24.00
67714;PMS7003;54505;44.022;20.458;2022-10-31T09:37:31;32.25;29.50;21.50
67714;PMS7003;54505;44.022;20.458;2022-10-31T09:39:56;28.50;26.75;18.50
67714;PMS7003;54505;44.022;20.458;2022-10-31T09:42:58;37.00;32.50;22.25
67714;PMS7003;54505;44.022;20.458;2022-10-31T09:53:05;38.50;33.25;23.75
67714;PMS7003;54505;44.022;20.458;2022-10-31T09:55:40;35.75;31.25;20.25
67714;PMS7003;54505;44.022;20.458;2022-10-31T09:58:18;36.00;31.00;21.00
67714;PMS7003;54505;44.022;20.458;2022-10-31T10:00:45;27.00;26.50;19.00
67714;PMS7003;54505;44.022;20.458;2022-10-31T10:05:59;30.75;28.50;18.75
67714;PMS7003;54505;44.022;20.458;2022-10-31T10:08:28;44.00;36.75;24.00
67714;PMS7003;54505;44.022;20.458;2022-10-31T10:11:01;38.75;32.25;22.00
67714;PMS7003;54505;44.022;20.458;2022-10-31T10:18:40;17.50;17.25;14.75
67714;PMS7003;54505;44.022;20.458;2022-10-31T10:21:14;20.75;19.50;15.00
67714;PMS7003;54505;44.022;20.458;2022-10-31T10:23:59;22.50;22.00;18.00
67714;PMS7003;54505;44.022;20.458;2022-10-31T10:26:35;24.50;21.75;17.25
67714;PMS7003;54505;44.022;20.458;2022-10-31T10:29:02;21.25;20.50;14.25
67714;PMS7003;54505;44.022;20.458;2022-10-31T10:31:31;32.00;29.25;21.00
67714;PMS7003;54505;44.022;20.458;2022-10-31T10:34:02;19.75;18.00;14.75
67714;PMS7003;54505;44.022;20.458;2022-10-31T10:36:47;17.50;17.25;11.75
67714;PMS7003;54505;44.022;20.458;2022-10-31T10:39:18;17.00;17.00;12.00
67714;PMS7003;54505;44.022;20.458;2022-10-31T10:41:46;21.50;18.25;12.00
67714;PMS7003;54505;44.022;20.458;2022-10-31T10:44:12;18.00;18.00;13.25
67714;PMS7003;54505;44.022;20.458;2022-10-31T10:46:42;15.50;14.00;12.00
67714;PMS7003;54505;44.022;20.458;2022-10-31T10:59:38;12.75;11.25;10.00
67714;PMS7003;54505;44.022;20.458;2022-10-31T11:02:08;13.25;12.00;9.25
67714;PMS7003;54505;44.022;20.458;2022-10-31T11:04:40;14.00;12.00;9.00
67714;PMS7003;54505;44.022;20.458;2022-10-31T11:07:11;33.75;29.00;21.00
67714;PMS7003;54505;44.022;20.458;2022-10-31T11:09:37;32.75;28.50;20.00
67714;PMS7003;54505;44.022;20.458;2022-10-31T11:12:07;26.25;24.25;17.00
67714;PMS7003;54505;44.022;20.458;2022-10-31T11:14:35;12.00;12.00;9.00
67714;PMS7003;54505;44.022;20.458;2022-10-31T11:17:09;16.00;15.00;10.75
67714;PMS7003;54505;44.022;20.458;2022-10-31T11:19:35;18.00;17.25;12.50
67714;PMS7003;54505;44.022;20.458;2022-10-31T11:22:08;26.50;22.50;16.75
67714;PMS7003;54505;44.022;20.458;2022-10-31T11:24:40;11.75;10.25;9.00
67714;PMS7003;54505;44.022;20.458;2022-10-31T11:27:16;16.50;16.50;12.00
67714;PMS7003;54505;44.022;20.458;2022-10-31T11:29:42;15.75;14.25;9.25
67714;PMS7003;54505;44.022;20.458;2022-10-31T11:32:15;17.00;16.50;10.75
67714;PMS7003;54505;44.022;20.458;2022-10-31T11:34:42;16.75;16.75;12.75
67714;PMS7003;54505;44.022;20.458;2022-10-31T11:39:38;12.00;9.00;7.00
67714;PMS7003;54505;44.022;20.458;2022-10-31T11:42:06;16.75;13.75;10.00
67714;PMS7003;54505;44.022;20.458;2022-10-31T11:44:32;21.75;20.00;15.50
67714;PMS7003;54505;44.022;20.458;2022-10-31T11:47:02;17.50;14.00;10.50
67714;PMS7003;54505;44.022;20.458;2022-10-31T11:51:59;25.75;25.75;19.75
67714;PMS7003;54505;44.022;20.458;2022-10-31T11:54:27;16.75;15.75;11.50
67714;PMS7003;54505;44.022;20.458;2022-10-31T11:56:54;15.50;11.75;9.00
67714;PMS7003;54505;44.022;20.458;2022-10-31T11:59:25;12.00;11.75;8.00
67714;PMS7003;54505;44.022;20.458;2022-10-31T12:01:51;9.75;8.00;6.00
67714;PMS7003;54505;44.022;20.458;2022-10-31T12:04:17;17.00;17.00;12.75
67714;PMS7003;54505;44.022;20.458;2022-10-31T12:06:44;17.50;13.50;11.50
67714;PMS7003;54505;44.022;20.458;2022-10-31T12:11:48;30.25;29.00;21.25
67714;PMS7003;54505;44.022;20.458;2022-10-31T12:14:21;16.50;16.25;13.25
67714;PMS7003;54505;44.022;20.458;2022-10-31T12:24:20;13.00;10.25;8.00
67714;PMS7003;54505;44.022;20.458;2022-10-31T12:37:03;12.50;11.00;8.00
67714;PMS7003;54505;44.022;20.458;2022-10-31T12:39:42;27.25;25.00;19.00
67714;PMS7003;54505;44.022;20.458;2022-10-31T12:42:19;10.00;9.50;8.00
67714;PMS7003;54505;44.022;20.458;2022-10-31T12:47:40;17.00;15.50;11.25
67714;PMS7003;54505;44.022;20.458;2022-10-31T12:57:32;16.75;16.00;12.00
67714;PMS7003;54505;44.022;20.458;2022-10-31T13:00:17;11.00;11.00;8.25
67714;PMS7003;54505;44.022;20.458;2022-10-31T13:02:48;15.50;13.00;10.00
67714;PMS7003;54505;44.022;20.458;2022-10-31T13:10:30;11.50;11.50;8.25
67714;PMS7003;54505;44.022;20.458;2022-10-31T13:13:00;9.00;8.00;6.00
67714;PMS7003;54505;44.022;20.458;2022-10-31T13:15:28;17.50;17.50;13.25
67714;PMS7003;54505;44.022;20.458;2022-10-31T13:17:57;19.75;18.50;13.75
67714;PMS7003;54505;44.022;20.458;2022-10-31T13:22:54;19.25;17.00;13.00
67714;PMS7003;54505;44.022;20.458;2022-10-31T13:32:50;9.50;8.75;6.00
67714;PMS7003;54505;44.022;20.458;2022-10-31T13:35:30;26.00;22.50;18.00
67714;PMS7003;54505;44.022;20.458;2022-10-31T13:40:44;16.25;14.75;11.00
67714;PMS7003;54505;44.022;20.458;2022-10-31T13:43:17;13.00;11.50;9.75
67714;PMS7003;54505;44.022;20.458;2022-10-31T13:45:53;18.50;18.00;14.25
67714;PMS7003;54505;44.022;20.458;2022-10-31T13:48:29;40.00;32.50;24.00
67714;PMS7003;54505;44.022;20.458;2022-10-31T13:51:00;37.50;30.00;23.25
67714;PMS7003;54505;44.022;20.458;2022-10-31T13:56:11;13.50;12.00;9.25
67714;PMS7003;54505;44.022;20.458;2022-10-31T13:58:40;15.75;15.50;12.75
67714;PMS7003;54505;44.022;20.458;2022-10-31T14:03:37;14.50;12.75;9.00
67714;PMS7003;54505;44.022;20.458;2022-10-31T14:06:04;24.00;22.75;15.50
67714;PMS7003;54505;44.022;20.458;2022-10-31T14:08:32;17.25;14.25;12.50
67714;PMS7003;54505;44.022;20.458;2022-10-31T14:10:58;30.75;29.00;20.00
67714;PMS7003;54505;44.022;20.458;2022-10-31T14:13:27;25.50;23.50;18.75
67714;PMS7003;54505;44.022;20.458;2022-10-31T14:15:56;25.75;23.00;17.00
67714;PMS7003;54505;44.022;20.458;2022-10-31T14:18:30;33.50;27.00;20.00
67714;PMS7003;54505;44.022;20.458;2022-10-31T14:20:56;31.50;26.00;18.25
67714;PMS7003;54505;44.022;20.458;2022-10-31T14:25:50;41.25;34.25;24.25
67714;PMS7003;54505;44.022;20.458;2022-10-31T14:30:55;32.00;27.50;19.75
67714;PMS7003;54505;44.022;20.458;2022-10-31T14:33:22;25.00;20.50;16.25
67714;PMS7003;54505;44.022;20.458;2022-10-31T14:36:04;43.25;35.75;26.25
67714;PMS7003;54505;44.022;20.458;2022-10-31T14:41:15;29.75;27.75;19.25
67714;PMS7003;54505;44.022;20.458;2022-10-31T14:43:47;31.50;27.00;20.00
67714;PMS7003;54505;44.022;20.458;2022-10-31T14:53:51;45.00;38.00;25.75
67714;PMS7003;54505;44.022;20.458;2022-10-31T14:56:23;45.75;35.25;24.50
67714;PMS7003;54505;44.022;20.458;2022-10-31T14:58:50;40.00;31.75;22.00
67714;PMS7003;54505;44.022;20.458;2022-10-31T15:01:21;42.50;35.00;24.00
67714;PMS7003;54505;44.022;20.458;2022-10-31T15:03:48;41.75;34.00;23.00
67714;PMS7003;54505;44.022;20.458;2022-10-31T15:06:15;56.00;44.25;28.50
67714;PMS7003;54505;44.022;20.458;2022-10-31T15:08:48;59.00;45.00;28.00
67714;PMS7003;54505;44.022;20.458;2022-10-31T15:13:46;73.00;61.00;37.25
67714;PMS7003;54505;44.022;20.458;2022-10-31T15:16:13;33.25;26.75;6.00
67714;PMS7003;54505;44.022;20.458;2022-10-31T15:18:44;68.50;55.25;37.00
67714;PMS7003;54505;44.022;20.458;2022-10-31T15:21:14;66.00;50.75;33.00
67714;PMS7003;54505;44.022;20.458;2022-10-31T15:23:39;69.25;56.00;35.25
67714;PMS7003;54505;44.022;20.458;2022-10-31T15:26:05;59.75;45.00;30.50
67714;PMS7003;54505;44.022;20.458;2022-10-31T15:28:31;63.50;48.50;32.50
67714;PMS7003;54505;44.022;20.458;2022-10-31T15:30:58;64.75;50.00;33.00
67714;PMS7003;54505;44.022;20.458;2022-10-31T15:33:46;83.25;72.75;46.00
67714;PMS7003;54505;44.022;20.458;2022-10-31T15:36:23;105.75;85.75;53.50
67714;PMS7003;54505;44.022;20.458;2022-10-31T15:38:49;96.25;87.75;54.50
67714;PMS7003;54505;44.022;20.458;2022-10-31T15:41:38;84.25;78.00;51.00
67714;PMS7003;54505;44.022;20.458;2022-10-31T15:49:26;85.25;75.00;48.50
67714;PMS7003;54505;44.022;20.458;2022-10-31T15:51:53;82.25;71.75;49.50
67714;PMS7003;54505;44.022;20.458;2022-10-31T15:54:18;75.25;60.25;39.00
67714;PMS7003;54505;44.022;20.458;2022-10-31T15:56:44;70.75;53.25;34.25